首页
METAR-TAF:

METAR-TAF

机场 :

Municipal_Airport

Cherokee, 艾奥瓦州, 美国

纬度: 42-43-54N, 经度: 095-33-21W, 海拔: 374米

当前天气观测

该预报发布于13分钟前的22:35 UTC
风速5节,风向南转南东
温度 30°C
湿度 46%
气压 1016 hPa
能見度: 16.1公里
天空无云

METAR: KCKP 262235Z AUTO 15005KT 10SM CLR 30/17 A3000 RMK AO2 T02950172

时间: 17:48 (22:48 UTC)


TAF: 丢失

超过4000个机场的气象观测和天气预报(METAR&TAF报告)。

可查询的气象台以黄色和红色小点在地图上表示。

将鼠标移到小点上方,可查看气象台名称。

然后点击查看天气观测和预报。

如需切换地图:点击带黑十字的绿色按钮放大地图;点击带横线的绿色按钮缩小地图;或者点击绿色箭头查看邻近地区的地图。


METAR-TAF: